Time;durP1;ratioP1;P1;durP2;ratioP2;P2;SDS_P1;SDS_P2;PMS_P1;PMS_P2;Temp;Humidity;BMP_temperature;BMP_pressure;BME280_temperature;BME280_humidity;BME280_pressure;Samples;Min_cycle;Max_cycle;Signal;HPM_P1;HPM_P2
2022/04/04 00:02:18;;;;;;;10.73;7.22;;;;;;;-0.10;64.72;100784.22;6579779;27;34743;-88
2022/04/04 00:05:22;;;;;;;11.68;7.37;;;;;;;-0.16;63.44;100783.78;6580073;27;34935;-88
2022/04/04 00:08:24;;;;;;;9.75;7.40;;;;;;;-0.21;64.87;100783.22;6580124;27;34817;-88
2022/04/04 00:11:27;;;;;;;12.68;7.85;;;;;;;-0.19;64.41;100790.13;6579524;27;34038;-88
2022/04/04 00:14:30;;;;;;;9.70;7.50;;;;;;;-0.15;66.14;100782.84;6578928;27;34499;-88
2022/04/04 00:17:33;;;;;;;10.38;7.47;;;;;;;-0.21;64.66;100785.87;6579144;27;33972;-88
2022/04/04 00:20:37;;;;;;;10.68;7.80;;;;;;;-0.24;66.10;100790.41;6577144;27;34274;-88
2022/04/04 00:23:40;;;;;;;10.45;7.18;;;;;;;-0.23;64.91;100788.63;6578239;27;34119;-88
2022/04/04 00:26:43;;;;;;;8.70;7.03;;;;;;;-0.29;64.60;100800.47;6578886;27;33558;-88
2022/04/04 00:29:46;;;;;;;9.98;7.55;;;;;;;-0.31;64.57;100796.22;6578974;27;33485;-88
2022/04/04 00:32:49;;;;;;;11.27;7.35;;;;;;;-0.28;65.67;100804.78;6576455;27;34038;-88
2022/04/04 00:35:51;;;;;;;9.60;7.55;;;;;;;-0.25;64.41;100793.16;6577636;27;34628;-88
2022/04/04 00:38:54;;;;;;;10.25;7.62;;;;;;;-0.12;65.20;100795.88;6578563;27;34132;-88
2022/04/04 00:41:57;;;;;;;9.57;7.35;;;;;;;-0.06;64.47;100796.34;6578087;27;34930;-88
2022/04/04 00:45:00;;;;;;;11.85;7.50;;;;;;;-0.11;64.50;100793.13;6578437;27;33477;-88
2022/04/04 00:48:04;;;;;;;9.50;7.55;;;;;;;-0.12;64.07;100796.72;6578688;27;34436;-88
2022/04/04 00:51:07;;;;;;;11.12;7.62;;;;;;;-0.25;66.27;100796.66;6579265;27;33896;-88
2022/04/04 00:54:10;;;;;;;8.07;6.85;;;;;;;-0.22;65.99;100787.69;6579323;27;34663;-88
2022/04/04 00:57:15;;;;;;;9.50;7.03;;;;;;;-0.19;64.89;100787.47;6579539;27;34559;-88
2022/04/04 01:00:20;;;;;;;8.15;6.95;;;;;;;-0.24;65.23;100787.75;6579604;27;34215;-88
2022/04/04 01:03:22;;;;;;;9.90;7.78;;;;;;;-0.15;65.04;100788.97;6579299;27;35247;-88
2022/04/04 01:06:25;;;;;;;9.75;7.72;;;;;;;-0.22;65.19;100785.03;6578489;27;33639;-88
2022/04/04 01:09:28;;;;;;;9.88;7.62;;;;;;;-0.25;66.95;100791.38;6578273;27;34129;-88
2022/04/04 01:12:31;;;;;;;8.90;7.50;;;;;;;-0.30;65.35;100784.66;6579585;27;34053;-88
2022/04/04 04:01:58;;;;;;;14.85;9.65;;;;;;;-1.42;71.60;100828.53;6445730;27;20196;-87
2022/04/04 04:05:01;;;;;;;10.70;8.57;;;;;;;-1.36;74.29;100838.75;6579987;27;34311;-88
2022/04/04 04:08:06;;;;;;;12.18;9.10;;;;;;;-1.35;73.54;100845.72;6582252;27;34139;-88
2022/04/04 04:11:10;;;;;;;19.00;10.15;;;;;;;-1.30;72.48;100848.94;6580541;27;34248;-88
2022/04/04 04:14:12;;;;;;;14.70;9.80;;;;;;;-1.38;nan;100846.75;6580174;27;34257;-88
2022/04/04 04:17:16;;;;;;;12.32;9.23;;;;;;;-1.35;72.53;100847.50;6582168;27;33855;-88
2022/04/04 04:20:20;;;;;;;15.45;9.43;;;;;;;-1.18;71.04;100850.84;6590838;27;34313;-88
2022/04/04 04:23:23;;;;;;;14.40;10.10;;;;;;;-1.07;70.02;100847.59;6580990;27;34137;-88
2022/04/04 04:26:25;;;;;;;14.07;10.02;;;;;;;-1.22;72.22;100845.88;6579065;27;34205;-87
2022/04/04 04:29:28;;;;;;;11.82;9.55;;;;;;;-1.32;73.41;100845.53;6578787;27;34449;-87
2022/04/04 04:32:31;;;;;;;15.25;9.43;;;;;;;-1.39;75.61;100847.69;6579236;27;33710;-87
2022/04/04 04:35:35;;;;;;;14.82;9.73;;;;;;;-1.35;74.84;100848.34;6578900;27;34714;-88
2022/04/04 04:38:37;;;;;;;13.85;9.43;;;;;;;-1.39;75.09;100845.06;6579130;27;33652;-88
2022/04/04 04:41:40;;;;;;;13.77;10.27;;;;;;;-1.40;73.94;100850.44;6578688;27;33953;-87
2022/04/04 04:44:44;;;;;;;13.15;9.55;;;;;;;-1.38;72.92;100851.19;6578915;27;33902;-88
2022/04/04 04:47:48;;;;;;;11.60;9.10;;;;;;;-1.37;74.99;100843.19;6579478;27;33924;-88
2022/04/04 04:50:51;;;;;;;14.10;9.30;;;;;;;-1.29;72.70;100850.63;6579646;27;34450;-87
2022/04/04 04:53:54;;;;;;;12.43;9.60;;;;;;;-1.23;72.51;100849.44;6578248;27;34863;-87
2022/04/04 04:56:58;;;;;;;14.27;9.40;;;;;;;-1.13;73.02;100849.75;6582329;27;34422;-87
2022/04/04 05:00:03;;;;;;;11.95;8.90;;;;;;;-0.95;69.99;100853.94;6578162;27;33690;-88
2022/04/04 05:03:24;;;;;;;12.60;9.63;;;;;;;-0.78;68.80;100850.28;6579737;27;33979;-88
2022/04/04 05:06:27;;;;;;;12.07;8.95;;;;;;;-0.69;70.82;100855.84;6578792;27;33971;-87
2022/04/04 05:09:30;;;;;;;12.95;9.48;;;;;;;-0.55;69.38;100857.63;6579122;27;34008;-87
2022/04/04 05:12:33;;;;;;;11.98;9.50;;;;;;;-0.26;66.09;100852.34;6580171;27;34159;-88
2022/04/04 05:15:36;;;;;;;13.52;9.75;;;;;;;-0.08;66.02;100861.75;6578902;27;34072;-88
2022/04/04 05:18:43;;;;;;;12.18;9.23;;;;;;;0.13;64.94;100856.03;6581291;27;34274;-88
2022/04/04 05:21:46;;;;;;;11.05;8.80;;;;;;;0.25;62.72;100865.81;6580833;27;34245;-88
2022/04/04 05:24:49;;;;;;;13.13;9.48;;;;;;;0.41;61.23;100863.87;6580496;27;34589;-92
2022/04/04 05:27:52;;;;;;;15.45;9.63;;;;;;;0.64;61.75;100864.13;6579467;27;35186;-92
2022/04/04 05:30:56;;;;;;;14.27;9.18;;;;;;;0.79;62.27;100865.78;6579135;27;34438;-92
2022/04/04 05:33:59;;;;;;;13.25;8.93;;;;;;;0.94;59.66;100870.97;6580017;27;35958;-93
2022/04/04 05:37:04;;;;;;;15.68;9.73;;;;;;;1.03;60.72;100871.22;6580671;27;34482;-89
2022/04/04 05:40:08;;;;;;;15.95;9.02;;;;;;;1.17;58.66;100874.72;6580327;27;33573;-89
2022/04/04 05:43:18;;;;;;;13.68;9.23;;;;;;;1.27;58.20;100876.63;6580289;27;33621;-88
2022/04/04 05:46:22;;;;;;;14.15;8.80;;;;;;;1.47;59.20;100879.72;6579134;27;139770;-88
2022/04/04 05:49:25;;;;;;;12.27;9.75;;;;;;;1.65;59.33;100883.72;6580582;27;34776;-87
2022/04/04 05:52:28;;;;;;;15.85;8.55;;;;;;;1.77;57.56;100882.84;6580212;27;33821;-88
2022/04/04 05:55:31;;;;;;;13.98;9.05;;;;;;;2.00;56.02;100886.53;6579777;27;33951;-88
2022/04/04 05:58:36;;;;;;;13.57;9.32;;;;;;;2.11;56.07;100884.94;6579011;27;34074;-88
2022/04/04 06:01:40;;;;;;;14.90;9.77;;;;;;;2.24;56.06;100888.37;6579629;27;33995;-88
2022/04/04 06:04:43;;;;;;;11.88;9.10;;;;;;;2.45;55.92;100889.44;6579066;27;34657;-87
2022/04/04 06:07:45;;;;;;;14.30;8.98;;;;;;;2.59;53.92;100887.59;6570511;27;34399;-88
2022/04/04 06:10:48;;;;;;;11.50;8.40;;;;;;;2.70;55.29;100892.97;6580758;27;33781;-88
2022/04/04 06:13:51;;;;;;;12.02;8.77;;;;;;;2.94;52.73;100888.44;6578565;27;34355;-88
2022/04/04 06:16:54;;;;;;;11.80;8.25;;;;;;;2.86;52.21;100893.50;6580297;27;34727;-87
2022/04/04 06:19:56;;;;;;;11.63;8.23;;;;;;;2.99;51.85;100892.59;6582393;27;35018;-87
2022/04/04 06:22:59;;;;;;;11.52;8.05;;;;;;;3.09;52.63;100890.91;6586809;27;35262;-87
2022/04/04 06:26:05;;;;;;;10.05;8.25;;;;;;;3.22;50.46;100896.12;6578827;27;34117;-87
2022/04/04 06:29:12;;;;;;;14.02;8.82;;;;;;;3.33;50.30;100898.81;6577607;27;35422;-87
2022/04/04 06:32:18;;;;;;;9.48;7.53;;;;;;;3.52;49.67;100900.91;6579008;27;33707;-87
2022/04/04 06:35:24;;;;;;;11.63;7.82;;;;;;;3.40;49.29;100898.25;6576553;27;33998;-87
2022/04/04 06:38:26;;;;;;;9.98;7.35;;;;;;;3.66;49.35;100902.47;6577654;27;34900;-87
2022/04/04 06:41:31;;;;;;;9.65;6.60;;;;;;;4.05;46.95;100898.50;6577750;27;35290;-87
2022/04/04 06:44:34;;;;;;;9.80;6.57;;;;;;;4.31;45.97;100902.56;6583503;27;34459;-87
2022/04/04 06:47:37;;;;;;;10.50;6.87;;;;;;;4.34;44.68;100904.13;6586601;27;35336;-87
2022/04/04 06:50:40;;;;;;;10.60;6.70;;;;;;;4.33;45.43;100905.13;6586044;27;33835;-87
2022/04/04 06:53:45;;;;;;;9.10;6.40;;;;;;;3.91;44.95;100906.72;6579576;27;34060;-87
2022/04/04 06:56:52;;;;;;;10.05;5.93;;;;;;;3.85;46.19;100908.91;6579847;27;33655;-86
2022/04/04 06:59:55;;;;;;;8.77;6.22;;;;;;;3.89;44.77;100911.31;6577515;27;33672;-87
2022/04/04 07:02:58;;;;;;;10.50;6.78;;;;;;;4.04;45.80;100908.31;6580046;27;33808;-86
2022/04/04 07:06:01;;;;;;;9.15;5.93;;;;;;;4.19;44.30;100918.72;6577647;27;34594;-87
2022/04/04 07:09:04;;;;;;;8.80;5.72;;;;;;;4.26;43.96;100917.22;6577813;27;34587;-87
2022/04/04 07:12:09;;;;;;;9.15;6.68;;;;;;;4.06;44.99;100916.16;6578485;27;33934;-86
2022/04/04 07:15:12;;;;;;;8.02;5.80;;;;;;;4.23;45.03;100914.81;6574908;27;32795;-87
2022/04/04 07:18:15;;;;;;;9.50;6.03;;;;;;;4.20;43.08;100910.56;6591475;27;34224;-87
2022/04/04 07:21:18;;;;;;;9.52;5.72;;;;;;;4.09;45.41;100916.78;6593544;27;34540;-87
2022/04/04 07:24:20;;;;;;;10.35;5.87;;;;;;;4.25;45.21;100913.72;6582025;27;35332;-86
2022/04/04 07:27:23;;;;;;;12.95;5.75;;;;;;;4.32;43.92;100912.25;6587368;27;35575;-89
2022/04/04 07:30:27;;;;;;;10.95;6.05;;;;;;;4.41;42.89;100905.31;6592894;27;37532;-90
2022/04/04 07:33:30;;;;;;;10.50;6.87;;;;;;;4.46;42.91;100913.78;6587371;26;34048;-91
2022/04/04 07:36:33;;;;;;;7.85;5.90;;;;;;;4.67;42.25;100913.84;6582344;26;35531;-87
2022/04/04 07:39:36;;;;;;;8.05;5.22;;;;;;;4.83;40.95;100920.59;6578812;27;34071;-87
2022/04/04 07:42:40;;;;;;;7.90;5.15;;;;;;;4.82;40.51;100917.06;6579517;27;34499;-87
2022/04/04 07:45:42;;;;;;;6.57;4.30;;;;;;;4.87;38.89;100917.53;6579299;27;33805;-87
2022/04/04 07:48:46;;;;;;;5.55;4.43;;;;;;;4.80;36.55;100911.03;6576202;27;33939;-87
2022/04/04 07:51:49;;;;;;;6.30;4.40;;;;;;;5.02;38.61;100910.06;6578167;27;33994;-87
2022/04/04 07:54:56;;;;;;;7.32;4.57;;;;;;;4.99;37.53;100908.50;6579124;27;33725;-87
2022/04/04 07:57:59;;;;;;;4.40;3.92;;;;;;;4.93;35.62;100908.19;6578625;27;34033;-87
2022/04/04 08:01:07;;;;;;;7.12;4.22;;;;;;;5.08;36.63;100900.69;6556504;27;33370;-87
2022/04/04 08:04:12;;;;;;;6.07;4.07;;;;;;;5.35;35.76;100908.19;6583768;27;33729;-87
2022/04/04 08:07:15;;;;;;;5.60;4.32;;;;;;;5.10;36.37;100906.75;6580088;27;33793;-86
2022/04/04 08:10:19;;;;;;;6.35;4.18;;;;;;;5.43;36.96;100895.03;6577011;27;34554;-86
2022/04/04 08:13:21;;;;;;;6.78;4.65;;;;;;;5.34;38.02;100895.81;6576522;27;33954;-85
2022/04/04 08:16:25;;;;;;;6.30;4.35;;;;;;;5.29;36.76;100906.03;6578147;27;33994;-85
2022/04/04 08:19:29;;;;;;;5.87;4.57;;;;;;;5.23;38.53;100894.94;6577380;27;33610;-87
2022/04/04 08:22:38;;;;;;;4.78;4.25;;;;;;;5.23;38.03;100891.37;6578360;27;34147;-86
2022/04/04 08:25:40;;;;;;;7.45;4.62;;;;;;;5.40;37.62;100898.81;6577677;27;34569;-86
2022/04/04 08:28:43;;;;;;;6.72;4.70;;;;;;;5.24;38.16;100898.44;6577533;27;34063;-87
2022/04/04 08:31:47;;;;;;;5.95;4.70;;;;;;;5.32;37.42;100887.94;6579411;27;33828;-87
2022/04/04 08:34:50;;;;;;;5.80;4.55;;;;;;;5.44;38.05;100888.69;6581600;27;33711;-87
2022/04/04 08:37:53;;;;;;;5.75;3.90;;;;;;;5.56;38.08;100881.47;6590603;27;33982;-87
2022/04/04 08:41:02;;;;;;;6.43;4.50;;;;;;;5.78;37.93;100875.09;6595861;27;34389;-87
2022/04/04 08:44:05;;;;;;;5.68;4.68;;;;;;;5.94;36.99;100869.25;6579779;27;34092;-86
2022/04/04 08:47:09;;;;;;;5.47;4.57;;;;;;;5.83;38.13;100873.72;6578045;27;33692;-87
2022/04/04 08:50:13;;;;;;;6.95;4.37;;;;;;;6.18;36.54;100861.75;6575154;27;33471;-87
2022/04/04 08:53:16;;;;;;;7.15;4.20;;;;;;;5.97;35.83;100859.16;6578329;27;33919;-86
2022/04/04 08:56:23;;;;;;;6.32;3.60;;;;;;;6.07;36.75;100854.69;6578898;27;34015;-86
2022/04/04 08:59:26;;;;;;;4.85;4.10;;;;;;;6.02;36.59;100843.56;6578830;27;33679;-86
2022/04/04 09:02:29;;;;;;;5.55;4.22;;;;;;;6.12;36.15;100847.09;6581452;27;34106;-86
2022/04/04 09:05:34;;;;;;;6.95;4.35;;;;;;;6.24;36.01;100847.00;6579553;27;33906;-86
2022/04/04 09:08:45;;;;;;;4.35;3.80;;;;;;;6.34;35.99;100842.50;6578787;27;34105;-87
2022/04/04 09:12:09;;;;;;;9.07;4.20;;;;;;;6.72;36.91;100835.47;6579092;27;33819;-86
2022/04/04 09:15:12;;;;;;;5.85;4.82;;;;;;;6.98;36.16;100828.53;6578901;27;34118;-88
2022/04/04 09:18:15;;;;;;;5.57;4.15;;;;;;;6.75;34.32;100827.16;6578336;27;33739;-87
2022/04/04 09:21:18;;;;;;;7.20;4.22;;;;;;;6.84;34.86;100820.94;6578875;27;33919;-87
2022/04/04 09:24:41;;;;;;;5.35;4.20;;;;;;;6.68;35.52;100820.69;6579018;27;34123;-87
2022/04/04 09:27:43;;;;;;;7.37;4.28;;;;;;;6.90;37.18;100811.50;6589976;27;34390;-87
2022/04/04 09:31:06;;;;;;;6.60;4.20;;;;;;;6.95;34.54;100812.75;6589711;27;35140;-87
2022/04/04 09:34:09;;;;;;;6.47;4.47;;;;;;;7.02;36.65;100811.22;6579689;27;34349;-87
2022/04/04 09:37:23;;;;;;;8.15;5.18;;;;;;;6.97;35.28;100799.25;6578549;27;34863;-87
2022/04/04 09:40:32;;;;;;;6.35;4.75;;;;;;;6.84;36.37;100798.69;6578172;27;33529;-86
2022/04/04 09:43:48;;;;;;;;;;;;;;;6.90;37.47;100790.09;6578340;27;33682;-87
2022/04/04 09:46:51;;;;;;;6.45;4.70;;;;;;;7.02;36.98;100783.59;6578187;27;34397;-86
2022/04/04 09:49:54;;;;;;;7.37;4.80;;;;;;;7.21;38.16;100777.34;6577925;27;34798;-87
2022/04/04 09:52:59;;;;;;;8.00;4.40;;;;;;;7.43;36.26;100778.78;6576816;27;34729;-87
2022/04/04 09:56:05;;;;;;;6.60;4.97;;;;;;;7.49;36.39;100768.34;6576543;27;34510;-87
2022/04/04 09:59:12;;;;;;;6.12;4.90;;;;;;;7.66;35.57;100768.53;6577649;27;35415;-86
2022/04/04 10:02:16;;;;;;;6.78;4.75;;;;;;;7.66;36.14;100766.72;6579638;27;33826;-87
2022/04/04 10:05:21;;;;;;;6.47;5.22;;;;;;;7.60;35.77;100761.91;6583886;27;34683;-86
2022/04/04 10:08:25;;;;;;;7.57;5.10;;;;;;;7.89;36.26;100748.34;6579526;27;34114;-86
2022/04/04 10:11:36;;;;;;;8.65;5.10;;;;;;;8.18;34.54;100752.66;6578240;27;34268;-86
2022/04/04 10:14:39;;;;;;;8.95;5.15;;;;;;;8.26;34.94;100754.59;6578440;27;35243;-87
2022/04/04 10:17:44;;;;;;;6.62;4.90;;;;;;;7.87;36.58;100749.53;6577764;27;33612;-87
2022/04/04 10:20:53;;;;;;;6.43;4.90;;;;;;;7.30;36.54;100738.13;6578173;27;34690;-87
2022/04/04 10:23:59;;;;;;;7.70;5.22;;;;;;;7.80;37.15;100737.69;6578383;27;34852;-87
2022/04/04 10:27:03;;;;;;;9.10;4.55;;;;;;;8.12;36.51;100737.19;6577486;27;33712;-88
2022/04/04 10:30:08;;;;;;;6.07;5.20;;;;;;;8.38;35.83;100731.91;6576241;27;33903;-87
2022/04/04 10:33:19;;;;;;;8.88;5.18;;;;;;;8.75;39.28;100726.34;6576846;27;34035;-87
2022/04/04 10:36:25;;;;;;;7.22;4.55;;;;;;;8.82;35.46;100718.50;6577284;27;34036;-87
2022/04/04 10:39:48;;;;;;;5.40;4.60;;;;;;;8.56;35.52;100715.81;6576882;27;33953;-87
2022/04/04 10:43:07;;;;;;;5.78;5.18;;;;;;;9.28;36.50;100709.19;6577732;27;33634;-87
2022/04/04 10:46:11;;;;;;;7.30;5.50;;;;;;;9.67;37.83;100697.87;6578183;27;34165;-87
2022/04/04 10:49:19;;;;;;;7.95;5.78;;;;;;;9.57;34.46;100699.88;6577840;27;35310;-87
2022/04/04 10:52:59;;;;;;;8.80;5.70;;;;;;;9.14;35.48;100695.50;6576841;27;34033;-87
2022/04/04 10:56:04;;;;;;;6.87;5.25;;;;;;;8.99;38.59;100693.44;6493647;27;33776;-86
2022/04/04 10:59:16;;;;;;;7.78;5.50;;;;;;;9.20;34.29;100694.87;6579104;27;35496;-87
2022/04/04 11:02:20;;;;;;;7.87;6.25;;;;;;;9.14;36.72;100690.16;6579655;27;34153;-87
2022/04/04 11:09:04;;;;;;;8.80;6.32;;;;;;;8.87;37.07;100675.06;6579107;27;34487;-87
2022/04/04 11:12:11;;;;;;;8.38;5.95;;;;;;;9.02;36.20;100679.69;6577836;27;33887;-86
2022/04/04 11:15:14;;;;;;;7.12;5.47;;;;;;;8.80;35.44;100667.66;6576179;27;33668;-87
2022/04/04 11:18:17;;;;;;;8.25;6.25;;;;;;;8.57;36.11;100672.72;6578903;27;35023;-87
2022/04/04 11:21:40;;;;;;;11.40;6.22;;;;;;;8.96;37.53;100661.53;6578318;27;33677;-87
2022/04/04 11:24:44;;;;;;;7.87;5.60;;;;;;;9.24;35.91;100669.34;6577573;27;33910;-87
2022/04/04 11:27:48;;;;;;;6.53;5.87;;;;;;;9.47;35.28;100665.06;6581044;27;33613;-87
2022/04/04 11:31:03;;;;;;;5.82;5.03;;;;;;;8.94;34.49;100668.06;6580026;27;33646;-87
2022/04/04 11:34:13;;;;;;;10.32;5.60;;;;;;;8.63;35.00;100663.19;6581745;27;35097;-86
2022/04/04 11:37:19;;;;;;;10.80;6.07;;;;;;;9.05;35.50;100654.34;6576766;27;35443;-86
2022/04/04 11:40:26;;;;;;;7.28;5.57;;;;;;;9.18;37.38;100657.41;6581936;27;34540;-86
2022/04/04 11:43:31;;;;;;;6.60;5.10;;;;;;;10.34;34.58;100651.25;6579262;27;33871;-87
2022/04/04 11:46:34;;;;;;;6.30;5.00;;;;;;;11.17;32.55;100647.31;6576763;27;34524;-87
2022/04/04 11:49:40;;;;;;;5.03;4.50;;;;;;;13.24;29.81;100642.53;6577061;27;34043;-87
2022/04/04 11:52:59;;;;;;;5.70;4.40;;;;;;;15.14;26.57;100634.66;6577814;27;34416;-87
2022/04/04 11:56:08;;;;;;;5.45;4.93;;;;;;;16.61;25.29;100619.47;6577080;27;35141;-87
2022/04/04 11:59:11;;;;;;;6.90;4.97;;;;;;;17.34;25.04;100610.28;6577797;27;33879;-87
2022/04/04 12:02:14;;;;;;;7.20;4.80;;;;;;;17.94;23.20;100609.97;6577788;27;34637;-87
2022/04/04 12:05:22;;;;;;;6.87;5.03;;;;;;;17.56;23.58;100610.81;6577383;27;34074;-87
2022/04/04 12:08:26;;;;;;;5.47;4.97;;;;;;;18.32;23.37;100610.69;6578998;27;34275;-91
2022/04/04 12:11:30;;;;;;;4.75;4.30;;;;;;;18.18;24.94;100605.59;6578287;27;33861;-92
2022/04/04 12:14:37;;;;;;;6.55;5.05;;;;;;;18.28;24.69;100603.19;6578020;27;34083;-88
2022/04/04 12:17:41;;;;;;;7.65;4.80;;;;;;;19.76;22.08;100596.66;6582792;27;33788;-87
2022/04/04 12:20:45;;;;;;;7.78;5.20;;;;;;;19.95;21.94;100589.25;6580443;27;34770;-87
2022/04/04 12:27:13;;;;;;;6.15;5.20;;;;;;;17.22;24.77;100580.19;6579092;27;34199;-87
2022/04/04 12:30:28;;;;;;;7.80;5.50;;;;;;;16.65;24.64;100587.28;6578776;27;34642;-87
2022/04/04 12:33:32;;;;;;;7.47;5.22;;;;;;;17.21;24.10;100570.38;6578557;27;34186;-87
2022/04/04 12:36:40;;;;;;;7.37;5.35;;;;;;;17.54;24.80;100563.91;6578698;27;34263;-87
2022/04/04 12:39:43;;;;;;;6.57;5.25;;;;;;;18.33;23.96;100557.00;6576798;27;34382;-88
2022/04/04 12:42:49;;;;;;;6.95;5.55;;;;;;;19.87;22.60;100551.31;6577904;27;34390;-88
2022/04/04 12:45:52;;;;;;;8.32;5.82;;;;;;;18.40;23.00;100541.44;6578057;27;34035;-87
2022/04/04 12:49:11;;;;;;;7.70;5.40;;;;;;;18.82;22.46;100543.53;6577670;27;34042;-87
2022/04/04 12:52:13;;;;;;;10.43;5.50;;;;;;;17.87;23.57;100539.19;6577333;27;33971;-87
2022/04/04 12:55:16;;;;;;;10.45;5.55;;;;;;;17.74;25.03;100528.37;6578293;27;33843;-87
2022/04/04 12:58:23;;;;;;;7.93;6.05;;;;;;;17.77;24.09;100536.94;6578076;27;33993;-87
2022/04/04 13:01:26;;;;;;;9.57;6.07;;;;;;;17.95;23.67;100527.19;6579650;27;34057;-88
2022/04/04 13:04:30;;;;;;;6.55;5.53;;;;;;;17.71;24.23;100532.37;6577997;27;33754;-88
2022/04/04 13:07:33;;;;;;;6.72;5.78;;;;;;;15.56;27.00;100526.91;6577613;27;35549;-88
2022/04/04 13:10:36;;;;;;;8.82;6.43;;;;;;;13.41;29.05;100526.91;6577473;27;35354;-88
2022/04/04 13:14:10;;;;;;;7.53;6.20;;;;;;;12.18;31.19;100522.22;6576853;27;35119;-88
2022/04/04 13:17:13;;;;;;;8.00;6.90;;;;;;;11.50;34.48;100522.13;6574272;27;34068;-92
2022/04/04 13:20:17;;;;;;;8.02;6.78;;;;;;;11.19;34.23;100505.16;6578085;27;34144;-92
2022/04/04 13:23:21;;;;;;;7.53;6.15;;;;;;;12.30;32.94;100514.50;6577598;27;34734;-88
2022/04/04 13:26:26;;;;;;;11.15;6.87;;;;;;;12.48;31.64;100507.69;6577690;27;34628;-88
2022/04/04 13:29:29;;;;;;;8.82;6.57;;;;;;;12.16;32.96;100506.19;6578227;27;33796;-87
2022/04/04 13:32:32;;;;;;;7.95;5.97;;;;;;;11.50;33.65;100505.13;6576942;27;34418;-88
2022/04/04 13:35:36;;;;;;;9.80;6.45;;;;;;;11.29;34.85;100505.75;6579984;27;34847;-89
2022/04/04 13:38:39;;;;;;;8.52;5.70;;;;;;;10.97;35.63;100502.28;6584919;27;34456;-88
2022/04/04 13:41:42;;;;;;;10.15;6.30;;;;;;;10.60;35.23;100501.13;6587814;27;35064;-88
2022/04/04 13:44:45;;;;;;;7.55;6.37;;;;;;;10.61;36.41;100496.56;6597615;27;35447;-87
2022/04/04 13:47:48;;;;;;;10.23;6.53;;;;;;;10.21;36.12;100484.91;6598798;26;35549;-87
2022/04/04 13:50:53;;;;;;;7.45;5.85;;;;;;;9.96;36.00;100489.50;6596300;26;35471;-88
2022/04/04 13:54:00;;;;;;;7.53;5.85;;;;;;;9.19;38.24;100475.62;6595066;26;34012;-88
2022/04/04 13:57:04;;;;;;;7.18;6.07;;;;;;;8.96;39.96;100473.56;6593759;26;34406;-88
2022/04/04 14:00:07;;;;;;;10.38;6.57;;;;;;;8.87;41.63;100465.66;6595151;27;35405;-88
2022/04/04 14:03:13;;;;;;;8.48;6.37;;;;;;;8.61;40.74;100467.44;6578085;27;33925;-88
2022/04/04 14:06:17;;;;;;;7.62;5.55;;;;;;;9.08;39.57;100463.34;6583749;27;33444;-88
2022/04/04 14:09:20;;;;;;;8.27;6.10;;;;;;;9.02;39.40;100462.16;6579321;27;34004;-88
2022/04/04 14:12:23;;;;;;;10.60;6.20;;;;;;;8.89;41.66;100463.63;6578428;27;35022;-88
2022/04/04 14:15:26;;;;;;;8.77;6.03;;;;;;;8.49;41.43;100444.59;6578529;27;34243;-88
2022/04/04 14:18:30;;;;;;;10.70;7.30;;;;;;;8.55;42.82;100454.66;6579382;27;35109;-88
2022/04/04 14:21:32;;;;;;;11.60;6.40;;;;;;;8.59;42.45;100447.97;6580828;26;33582;-88
2022/04/04 14:24:36;;;;;;;10.30;7.22;;;;;;;8.68;41.79;100442.62;6581929;26;34118;-88
2022/04/04 14:27:38;;;;;;;11.73;6.60;;;;;;;8.53;42.39;100440.56;6572675;26;34777;-87
2022/04/04 14:30:42;;;;;;;10.80;6.75;;;;;;;8.03;43.10;100440.50;6580142;27;33981;-87
2022/04/04 14:33:44;;;;;;;10.65;7.00;;;;;;;7.98;44.13;100440.13;6577413;27;33940;-87
2022/04/04 14:36:48;;;;;;;9.27;7.32;;;;;;;7.74;44.19;100428.28;6578035;27;35370;-87
2022/04/04 14:39:51;;;;;;;14.70;7.35;;;;;;;7.61;44.96;100433.22;6577595;27;34667;-87
2022/04/04 14:42:54;;;;;;;10.82;7.40;;;;;;;7.19;45.88;100412.47;6578269;27;33922;-87
2022/04/04 14:45:56;;;;;;;15.82;7.70;;;;;;;7.21;46.55;100415.84;6578006;27;34080;-87
2022/04/04 14:49:00;;;;;;;13.48;7.85;;;;;;;7.27;47.47;100409.87;6578303;27;33886;-87
2022/04/04 14:52:03;;;;;;;11.82;8.40;;;;;;;7.20;48.43;100411.50;6580458;27;34083;-87
2022/04/04 14:55:12;;;;;;;10.95;7.32;;;;;;;7.29;48.28;100409.72;6578599;27;34085;-87
2022/04/04 14:58:15;;;;;;;13.38;7.68;;;;;;;7.23;48.01;100400.47;6579414;27;33798;-87
2022/04/04 15:01:19;;;;;;;12.65;8.77;;;;;;;7.02;48.16;100395.47;6578316;27;34131;-87
2022/04/04 15:04:21;;;;;;;12.55;8.32;;;;;;;7.07;52.84;100393.13;6584650;27;34553;-87
2022/04/04 15:07:24;;;;;;;13.43;9.02;;;;;;;7.13;50.55;100391.69;6588064;27;34194;-87
2022/04/04 15:10:27;;;;;;;11.98;8.20;;;;;;;7.18;50.07;100384.03;6578518;27;35143;-87
2022/04/04 15:13:30;;;;;;;14.55;8.65;;;;;;;6.95;49.05;100389.03;6578823;27;35382;-87
2022/04/04 15:16:33;;;;;;;10.70;8.82;;;;;;;7.01;52.51;100372.34;6578120;27;33854;-87
2022/04/04 15:19:36;;;;;;;15.30;9.30;;;;;;;6.99;48.52;100364.47;6579555;27;34754;-87
2022/04/04 15:22:39;;;;;;;11.63;9.07;;;;;;;7.11;50.58;100369.56;6578198;27;34900;-91
2022/04/04 15:25:42;;;;;;;11.05;8.63;;;;;;;7.12;50.89;100363.25;6578892;27;34379;-91
2022/04/04 15:28:47;;;;;;;11.23;9.43;;;;;;;7.12;49.90;100360.56;6578966;27;33816;-89
2022/04/04 15:31:51;;;;;;;12.35;8.93;;;;;;;6.96;50.09;100354.09;6578127;27;34378;-88
2022/04/04 15:34:55;;;;;;;12.75;9.18;;;;;;;6.91;50.35;100356.38;6577430;27;33819;-89
2022/04/04 15:37:58;;;;;;;13.82;8.82;;;;;;;6.85;49.85;100353.50;6578777;27;34363;-88
2022/04/04 15:41:01;;;;;;;11.88;9.18;;;;;;;6.83;49.52;100350.97;6579594;27;34015;-88
2022/04/04 15:44:06;;;;;;;11.75;9.38;;;;;;;6.82;50.00;100349.28;6578802;27;34817;-89
2022/04/04 15:47:12;;;;;;;13.82;9.40;;;;;;;6.69;51.76;100346.16;6578101;27;34374;-88
2022/04/04 15:50:15;;;;;;;11.23;8.85;;;;;;;6.68;51.82;100344.47;6578352;27;33702;-88
2022/04/04 15:53:18;;;;;;;11.52;9.30;;;;;;;6.66;51.32;100339.25;6578680;27;33915;-88
2022/04/04 15:56:24;;;;;;;13.45;8.88;;;;;;;6.64;52.08;100335.94;6579900;27;33733;-88
2022/04/04 15:59:26;;;;;;;10.43;8.23;;;;;;;6.68;52.45;100326.59;6578295;27;34113;-88
